Clarksburg, Tennessee
Current Conditions -  °F | °C
As of 4:55 PM on Monday 24 Nov 2014 (Local Time) from KPVE Reporting Station
Clear Clear  
Wind Chill: 46°   Ceiling: Unl
Heat Index: 48°   Visibility: 10mi
Dew Point: 28°   Wind: 6mph
Humidity: 46%   Direction: 260°W
Pressure: 29.92"   Gusts: NA
Location:  35.87°N, 88.39°W
Report Text: KPVE 242255Z AUTO 26005KT 10SM CLR 09/M02 A2992 RMK
Loading
Personal Weather Stations






























Interactive Weather Map New forecast layout! Learn more

10-Day Weather Forecast

Advertisements
Track Severe Weather on mobile